Latest Weather Observations for Falls Creek

IDV60801

Issued at 11:02 pm EDT Tuesday 6 December 2016 (issued every 30 minutes, with the page automatically refreshed every 10 minutes)

About weather observations | Map of weather stations | Latest weather observations for VIC | Other Formats
Station Details ID: 083084 Name: FALLS CREEK Lat: -36.87 Lon: 147.28 Height: 1765.0 m
Data from the previous 72 hours. | See also: Recent months at Falls Creek
Date/Time
EDT
Temp
°C
App
Temp
°C
Dew
Point
°C
Rel
Hum
%
Delta-T
°C
Wind Press
QNH
hPa
Press
MSL
hPa
Rain since
9am
mm
Dir  Spd
km/h
Gust
km/h
Spd
kts
Gust
kts
06/11:00pm 6.8 1.6 3.8 81 1.4 NW 20 24 11 13 1017.5 1011.1 0.0
06/10:30pm 7.0 1.8 3.8 80 1.5 NW 20 30 11 16 1017.5 1011.1 0.0
06/10:00pm 7.1 2.2 3.9 80 1.5 NW 19 24 10 13 1017.7 1011.3 0.0
06/09:30pm 7.3 2.4 3.9 79 1.6 NW 19 22 10 12 1017.5 1011.1 0.0
06/09:00pm 7.4 2.8 3.6 77 1.8 NW 17 22 9 12 1016.9 1010.5 0.0
06/08:30pm 7.7 3.1 3.9 77 1.8 NNW 17 24 9 13 1016.7 1010.2 0.0
06/08:00pm 8.3 3.8 4.3 76 2.0 NNW 17 22 9 12 1016.5 1010.1 0.0
06/07:30pm 9.0 3.9 4.2 72 2.3 NNW 20 26 11 14 1016.4 1010.0 0.0
06/07:00pm 9.8 5.7 4.4 69 2.7 NNW 15 22 8 12 1016.3 1009.9 0.0
06/06:30pm 10.3 5.9 4.9 69 2.7 NW 17 26 9 14 1016.1 1009.6 0.0
06/06:00pm 10.8 6.3 4.3 64 3.2 NW 17 30 9 16 1016.1 1009.6 0.0
06/05:30pm 11.3 5.8 4.1 61 3.6 NNW 22 33 12 18 1015.7 1009.3 0.0
06/05:00pm 11.2 5.6 3.5 59 3.8 NNW 22 32 12 17 1015.7 1009.3 0.0
06/04:30pm 11.7 6.7 3.5 57 4.0 NNW 19 28 10 15 1015.4 1008.9 0.0
06/04:00pm 11.5 6.0 2.0 52 4.5 NNW 20 37 11 20 1015.6 1009.1 0.0
06/03:30pm 10.6 3.7 2.4 57 3.9 NNW 28 39 15 21 1015.4 1008.9 0.0
06/03:05pm 11.1 4.6 4.8 65 3.2 NNW 28 46 15 25 1015.4 1008.9 0.0
06/03:00pm 10.9 4.5 5.2 68 2.9 NNW 28 37 15 20 1015.4 1008.9 0.0
06/02:30pm 10.1 2.8 2.7 60 3.5 NNW 30 44 16 24 1015.4 1008.9 0.0
06/02:20pm 10.0 3.3 3.5 64 3.2 NNW 28 46 15 25 1015.2 1008.8 0.0
06/02:00pm 10.5 4.1 5.1 69 2.7 NW 28 41 15 22 1015.6 1009.1 0.0
06/01:30pm 9.9 4.1 6.3 78 1.9 NNW 26 37 14 20 1015.7 1009.3 0.0
06/01:00pm 9.7 3.1 6.2 79 1.8 NNW 30 39 16 21 1015.5 1009.0 0.0
06/12:30pm 9.7 4.0 8.5 92 0.6 NNW 28 39 15 21 1016.1 1009.6 0.0
06/12:00pm 9.8 3.7 8.4 91 0.8 NNW 30 39 16 21 1015.9 1009.5 0.0
06/11:30am 9.9 4.1 9.3 96 0.3 NNW 30 43 16 23 1016.3 1009.9 0.0
06/11:00am 10.1 3.7 8.5 90 0.9 NNW 32 44 17 24 1015.9 1009.5 0.0
06/10:30am 10.5 5.0 9.1 91 0.8 NNW 28 39 15 21 1016.4 1010.0 0.0
06/10:00am 10.4 5.3 9.3 93 0.6 NNW 26 37 14 20 1016.4 1010.0 0.0
06/09:30am 10.3 5.2 9.1 92 0.7 NNW 26 39 14 21 1016.7 1010.2 0.0
06/09:00am 9.3 4.2 9.2 99 0.1 NNW 26 37 14 20 1016.4 1010.0 0.0
06/08:30am 9.2 3.7 9.1 99 0.1 NNW 28 44 15 24 1016.5 1010.1 0.0
06/08:00am 9.3 3.8 9.2 99 0.1 NNW 28 41 15 22 1015.8 1009.4 0.0
06/07:30am 9.4 3.2 9.3 99 0.1 NNW 32 48 17 26 1015.8 1009.4 0.0
06/07:14am 9.8 4.5 9.7 99 0.1 NNW 28 50 15 27 1015.5 1009.0 0.0
06/07:00am 9.9 4.6 9.8 99 0.1 NNW 28 43 15 23 1015.2 1008.8 0.0
06/06:30am 9.9 4.6 9.8 99 0.1 NNW 28 41 15 22 1014.9 1008.4 0.0
06/06:00am 9.8 4.1 9.7 99 0.1 NNW 30 39 16 21 1014.8 1008.3 0.0
06/05:30am 9.9 4.6 9.8 99 0.1 NNW 28 35 15 19 1014.5 1008.0 0.0
06/05:00am 10.4 5.2 10.2 99 0.1 NNW 28 37 15 20 1015.1 1008.6 0.0
06/04:30am 10.6 5.4 10.4 99 0.1 NNW 28 37 15 20 1014.6 1008.1 0.0
06/04:00am 10.3 5.1 10.1 99 0.1 NNW 28 33 15 18 1014.3 1007.8 0.0
06/03:30am 10.6 6.4 9.8 95 0.4 NNW 22 32 12 17 1015.1 1008.6 0.0
06/03:00am 10.6 6.6 10.4 99 0.1 NNW 22 30 12 16 1015.2 1008.8 0.0
06/02:30am 11.0 6.3 10.8 99 0.1 NNW 26 33 14 18 1015.5 1009.0 0.0
06/02:00am 11.4 7.2 11.2 99 0.1 NNW 24 33 13 18 1016.3 1009.9 0.0
06/01:30am 11.6 6.7 11.4 99 0.1 NNW 28 39 15 21 1016.4 1010.0 0.0
06/01:00am 11.8 7.7 11.6 99 0.1 NNW 24 32 13 17 1016.1 1009.6 0.0
06/12:30am 11.8 7.7 11.6 99 0.1 NNW 24 30 13 16 1015.9 1009.5 0.0
06/12:00am 11.9 8.3 11.7 99 0.1 NNW 22 30 12 16 1016.7 1010.2 0.0
 
Date/Time
EDT
Temp
°C
App
Temp
°C
Dew
Point
°C
Rel
Hum
%
Delta-T
°C
Wind Press
QNH
hPa
Press
MSL
hPa
Rain since
9am
mm
Dir  Spd
km/h
Gust
km/h
Spd
kts
Gust
kts
05/11:30pm 12.1 8.1 11.8 98 0.2 NNW 24 33 13 18 1017.7 1011.3 0.0
05/11:00pm 12.5 8.1 11.7 95 0.5 NNW 26 41 14 22 1018.6 1012.2 0.0
05/10:30pm 12.5 8.7 12.3 99 0.1 NNW 24 32 13 17 1018.4 1012.1 0.0
05/10:00pm 12.6 9.2 12.4 99 0.1 NNW 22 33 12 18 1017.7 1011.3 0.0
05/09:30pm 13.2 10.9 13.0 99 0.1 NW 17 24 9 13 1017.4 1011.0 0.0
05/09:00pm 13.5 10.9 13.3 99 0.1 NNW 19 32 10 17 1017.3 1010.9 0.0
05/08:30pm 13.4 10.8 13.2 99 0.1 NNW 19 35 10 19 1017.3 1010.9 0.0
05/08:00pm 13.5 11.3 13.2 98 0.2 NNW 17 22 9 12 1017.3 1010.9 0.0
05/07:30pm 13.6 12.2 13.3 98 0.2 NW 13 22 7 12 1017.3 1010.9 0.0
05/07:00pm 13.9 11.7 13.3 96 0.4 NW 17 30 9 16 1017.0 1010.6 0.0
05/06:30pm 14.5 10.7 13.5 94 0.6 NW 26 41 14 22 1016.8 1010.4 0.0
05/06:00pm 14.7 12.4 14.2 97 0.3 NW 19 33 10 18 1016.4 1010.0 0.0
05/05:30pm 14.0 10.6 13.8 99 0.1 WNW 24 41 13 22 1016.7 1010.2 0.0
05/05:00pm 14.1 10.4 13.9 99 0.1 NW 26 41 14 22 1016.3 1009.9 0.0
05/04:40pm 14.2 10.2 14.0 99 0.1 WNW 28 46 15 25 1016.2 1009.7 0.0
05/04:30pm 14.3 11.0 14.1 99 0.1 NW 24 41 13 22 1016.1 1009.6 0.0
05/04:00pm 14.2 10.9 14.0 99 0.1 NW 24 41 13 22 1016.4 1010.0 0.0
05/03:30pm 15.7 12.2 13.5 87 1.3 NW 24 39 13 21 1016.2 1009.7 0.0
05/03:01pm 16.0 11.8 13.5 85 1.5 NNW 28 46 15 25 1016.3 1009.9 0.0
05/03:00pm 16.1 11.6 13.8 86 1.4 NNW 30 46 16 25 1016.3 1009.9 0.0
05/02:48pm 15.8 11.5 13.3 85 1.5 NW 28 52 15 28 1016.4 1010.0 0.0
05/02:30pm 15.8 12.1 13.8 88 1.2 NNW 26 41 14 22 1016.7 1010.2 0.0
05/02:00pm 15.7 11.8 13.2 85 1.5 NNW 26 41 14 22 1016.7 1010.2 0.0
05/01:30pm 15.5 11.2 13.3 87 1.3 NNW 28 41 15 22 1016.8 1010.4 0.0
05/01:00pm 16.7 12.8 13.4 81 2.0 NNW 26 46 14 25 1016.8 1010.4 0.0
05/12:43pm 17.0 12.5 12.7 76 2.6 NNW 28 46 15 25 1016.5 1010.1 0.0
05/12:30pm 17.7 13.9 13.6 77 2.5 NNW 26 39 14 21 1016.7 1010.2 0.0
05/12:00pm 17.1 12.7 12.8 76 2.6 NNW 28 46 15 25 1016.8 1010.4 0.0
05/11:56am 16.9 12.5 13.0 78 2.4 NW 28 46 15 25 1016.7 1010.2 0.0
05/11:30am 15.9 11.4 12.6 81 2.0 NNW 28 41 15 22 1016.8 1010.4 0.0
05/11:00am 15.4 10.1 12.5 83 1.7 NNW 32 43 17 23 1016.5 1010.1 0.0
05/10:43am 15.4 10.8 12.2 81 1.9 NNW 28 46 15 25 1016.5 1010.1 0.0
05/10:30am 15.0 10.4 12.3 84 1.6 NNW 28 39 15 21 1016.5 1010.1 0.0
05/10:00am 14.4 10.0 11.7 84 1.6 NNW 26 41 14 22 1016.5 1010.1 0.0
05/09:30am 14.5 10.8 11.5 82 1.8 NNW 22 39 12 21 1016.4 1010.0 0.0
05/09:00am 13.7 10.3 11.2 85 1.5 NW 20 39 11 21 1016.5 1010.1 0.0
05/08:30am 13.2 9.3 10.9 86 1.3 NNW 22 37 12 20 1016.4 1010.0 0.0
05/08:00am 13.2 8.5 10.6 84 1.5 NW 26 44 14 24 1015.9 1009.5 0.0
05/07:30am 13.0 7.8 10.4 84 1.5 NNW 28 44 15 24 1015.8 1009.4 0.0
05/07:00am 12.8 7.2 10.2 84 1.5 NNW 30 44 16 24 1015.6 1009.1 0.0
05/06:30am 12.7 7.1 10.1 84 1.5 NNW 30 43 16 23 1015.2 1008.8 0.0
05/06:00am 12.6 6.6 10.0 84 1.5 NNW 32 43 17 23 1015.2 1008.8 0.0
05/05:30am 12.7 6.6 9.9 83 1.6 NNW 32 44 17 24 1015.0 1008.5 0.0
05/05:00am 12.6 7.0 10.0 84 1.5 NNW 30 37 16 20 1015.0 1008.5 0.0
05/04:30am 12.7 6.7 10.1 84 1.5 NNW 32 44 17 24 1014.8 1008.3 0.0
05/04:00am 12.3 6.4 10.5 89 1.0 NNW 32 43 17 23 1014.4 1007.9 0.0
05/03:30am 12.2 6.4 10.8 91 0.8 NNW 32 46 17 25 1014.8 1008.3 0.0
05/03:00am 12.0 6.9 10.7 92 0.7 NW 28 39 15 21 1014.9 1008.4 0.0
05/02:30am 11.4 5.4 10.9 97 0.3 NNW 33 46 18 25 1015.2 1008.8 0.0
05/02:01am 11.5 3.6 10.9 96 0.3 NNW 43 61 23 33 1015.2 1008.8 0.0
05/02:00am 11.5 3.4 10.9 96 0.3 NNW 44 61 24 33 1015.2 1008.8 0.0
05/01:52am 11.4 3.5 10.9 97 0.3 NNW 43 61 23 33 1015.2 1008.8 0.0
05/01:30am 11.2 4.9 10.9 98 0.2 NNW 35 44 19 24 1015.8 1009.4 0.0
05/01:00am 11.1 6.5 10.9 99 0.1 NW 26 46 14 25 1016.9 1010.5 0.0
05/12:30am 11.5 7.2 10.7 95 0.5 NNW 24 33 13 18 1017.5 1011.1 0.0
05/12:00am 11.7 5.9 10.8 94 0.5 NNW 32 37 17 20 1017.3 1010.9 0.0
 
Date/Time
EDT
Temp
°C
App
Temp
°C
Dew
Point
°C
Rel
Hum
%
Delta-T
°C
Wind Press
QNH
hPa
Press
MSL
hPa
Rain since
9am
mm
Dir  Spd
km/h
Gust
km/h
Spd
kts
Gust
kts
04/11:30pm 11.9 7.9 10.5 91 0.8 NNW 22 30 12 16 1017.4 1011.0 0.0
04/11:00pm 11.9 7.9 10.6 92 0.7 NNW 22 28 12 15 1017.5 1011.1 0.0
04/10:30pm 11.9 8.9 10.5 91 0.8 NW 17 20 9 11 1017.7 1011.3 0.0
04/10:00pm 11.8 9.1 10.4 91 0.8 WNW 15 19 8 10 1017.5 1011.1 0.0
04/09:30pm 11.4 9.5 10.6 95 0.5 NNW 11 13 6 7 1017.1 1010.7 0.0
04/09:00pm 11.0 8.8 10.8 99 0.1 N 13 15 7 8 1017.3 1010.9 0.0
04/08:30pm 11.1 8.9 10.9 99 0.1 NNW 13 17 7 9 1018.0 1011.6 0.0
04/08:00pm 11.3 8.0 11.0 98 0.2 NW 19 28 10 15 1018.1 1011.7 0.0
04/07:30pm 12.3 7.8 10.2 87 1.2 NW 24 37 13 20 1018.9 1012.6 0.0
04/07:14pm 12.9 6.5 9.5 80 1.9 NNW 33 52 18 28 1017.9 1011.5 0.0
04/07:00pm 13.3 6.5 9.4 77 2.2 NNW 35 52 19 28 1017.4 1011.0 0.0
04/06:30pm 13.9 7.0 8.7 71 2.9 NNW 35 57 19 31 1017.5 1011.1 0.0
04/06:05pm 14.6 8.0 7.9 64 3.7 N 32 50 17 27 1017.7 1011.3 0.0
04/06:00pm 14.7 8.0 8.2 65 3.6 N 33 50 18 27 1017.7 1011.3 0.0
04/05:30pm 16.4 10.7 6.8 53 5.2 NNW 26 39 14 21 1018.1 1011.7 0.0
04/05:00pm 16.2 10.8 7.9 58 4.6 NNW 26 33 14 18 1018.6 1012.2 0.0
04/04:30pm 17.3 12.0 8.4 56 5.0 NNW 26 35 14 19 1018.8 1012.5 0.0
04/04:00pm 17.2 11.3 7.5 53 5.3 NNW 28 39 15 21 1019.0 1012.7 0.0
04/03:30pm 17.4 11.4 6.9 50 5.7 NNW 28 41 15 22 1018.9 1012.6 0.0
04/03:00pm 17.5 12.1 7.8 53 5.4 N 26 39 14 21 1019.5 1013.2 0.0
04/02:44pm 18.4 12.4 6.9 47 6.3 NNW 28 48 15 26 1019.5 1013.2 0.0
04/02:30pm 17.6 12.0 7.1 50 5.8 NNW 26 41 14 22 1019.8 1013.4 0.0
04/02:00pm 16.1 10.3 6.3 52 5.2 N 26 43 14 23 1020.1 1013.8 0.0
04/01:30pm 16.3 9.1 5.0 47 5.9 NNW 32 43 17 23 1020.0 1013.7 0.0
04/01:00pm 17.2 11.9 4.9 44 6.4 N 22 43 12 23 1019.9 1013.6 0.0
04/12:30pm 16.2 11.5 5.2 48 5.8 N 19 30 10 16 1020.1 1013.8 0.0
04/12:00pm 16.9 11.8 6.1 49 5.8 NNW 22 33 12 18 1020.7 1014.4 0.0
04/11:30am 16.6 10.0 4.0 43 6.5 NNW 28 41 15 22 1020.6 1014.3 0.0
04/11:00am 16.7 10.3 3.4 41 6.7 NNW 26 35 14 19 1020.7 1014.4 0.0
04/10:30am 16.2 9.8 3.3 42 6.5 NNW 26 37 14 20 1020.8 1014.6 0.0
04/10:00am 15.4 9.6 2.2 41 6.5 NNW 22 37 12 20 1020.7 1014.4 0.0
04/09:30am 16.1 10.9 2.5 40 6.8 NNW 19 30 10 16 1020.6 1014.3 0.0
04/09:00am 14.6 8.8 0.1 37 6.8 NNW 20 28 11 15 1020.5 1014.2 0.0
04/08:30am 14.6 8.3 1.5 41 6.3 NNW 24 33 13 18 1020.6 1014.3 0.0
04/08:00am 14.0 7.8 -0.1 38 6.5 NNW 22 30 12 16 1020.3 1014.1 0.0
04/07:30am 13.2 7.4 -0.1 40 6.1 NNW 20 26 11 14 1020.1 1013.8 0.0
04/07:00am 12.1 6.8 -0.4 42 5.7 NNW 17 22 9 12 1020.2 1013.9 0.0
04/06:30am 12.1 6.7 -1.1 40 5.9 NNW 17 22 9 12 1019.9 1013.6 0.0
04/06:00am 11.7 6.0 -1.1 41 5.7 NNW 19 24 10 13 1019.9 1013.6 0.0
04/05:30am 11.7 6.4 -0.8 42 5.6 NNW 17 24 9 13 1019.6 1013.3 0.0
04/05:00am 11.4 6.0 -1.4 41 5.6 NNW 17 24 9 13 1019.3 1013.0 0.0
04/04:30am 11.4 6.3 -1.7 40 5.7 NW 15 22 8 12 1019.2 1012.8 0.0
04/04:00am 11.4 6.0 -1.7 40 5.7 NW 17 22 9 12 1019.2 1012.8 0.0
04/03:30am 11.0 5.2 -1.7 41 5.5 WNW 19 24 10 13 1019.4 1013.1 0.0
04/03:00am 10.7 5.6 -1.7 42 5.4 NW 15 22 8 12 1019.3 1013.0 0.0
04/02:30am 10.9 5.4 -2.1 40 5.6 WNW 17 28 9 15 1019.4 1013.1 0.0
04/02:00am 10.7 5.0 -3.7 36 6.0 NW 17 22 9 12 1019.8 1013.4 0.0
04/01:30am 10.9 4.4 -6.4 29 6.8 NW 20 26 11 14 1020.0 1013.7 0.0
04/01:00am 10.8 4.0 -8.9 24 7.3 NW 20 26 11 14 1020.2 1013.9 0.0
04/12:30am 10.7 3.6 -8.5 25 7.2 NW 22 28 12 15 1020.5 1014.2 0.0
04/12:00am 10.7 3.3 -7.5 27 6.9 NW 24 32 13 17 1020.6 1014.3 0.0
 
Date/Time
EDT
Temp
°C
App
Temp
°C
Dew
Point
°C
Rel
Hum
%
Delta-T
°C
Wind Press
QNH
hPa
Press
MSL
hPa
Rain since
9am
mm
Dir  Spd
km/h
Gust
km/h
Spd
kts
Gust
kts
03/11:30pm 10.7 3.4 -6.1 30 6.6 NW 24 30 13 16 1020.7 1014.4 0.0

Other Formats:

Comma delimited format used in spreadsheet applications
http://www.bom.gov.au/fwo/IDV60801/IDV60801.94903.axf

JavaScript Object Notation format (JSON) in row-major order
http://www.bom.gov.au/fwo/IDV60801/IDV60801.94903.json